createdAt,value
2023-05-01T00:00:47.318Z,8.6
2023-05-01T00:10:47.288Z,8.7
2023-05-01T00:15:47.306Z,8.4
2023-05-01T00:30:47.285Z,8.4
2023-05-01T00:45:47.416Z,8.3
2023-05-01T00:55:47.382Z,8.3
2023-05-01T01:00:47.419Z,8.4
2023-05-01T01:10:47.308Z,8.3
2023-05-01T01:15:47.333Z,8.4
2023-05-01T01:40:47.356Z,8.3
2023-05-01T01:45:47.480Z,8.3
2023-05-01T01:55:47.394Z,8.2
2023-05-01T02:05:47.374Z,8.2
2023-05-01T02:10:47.350Z,8.4
2023-05-01T02:15:47.398Z,8.3
2023-05-01T02:20:47.394Z,8.3
2023-05-01T02:30:47.406Z,8.3
2023-05-01T02:40:47.416Z,8.2
2023-05-01T02:45:47.449Z,8.2
2023-05-01T02:50:47.423Z,8.3
2023-05-01T03:05:47.381Z,8.2
2023-05-01T03:15:47.425Z,8.2
2023-05-01T03:25:47.431Z,8.1
2023-05-01T03:35:47.473Z,8.3
2023-05-01T03:40:47.412Z,8.1
2023-05-01T03:50:47.414Z,8.2
2023-05-01T03:55:47.423Z,8.1
2023-05-01T04:05:47.443Z,8.1
2023-05-01T04:10:47.446Z,8.1
2023-05-01T04:20:47.436Z,8.1
2023-05-01T04:30:47.441Z,8.2
2023-05-01T04:40:47.434Z,8.1
2023-05-01T04:45:47.433Z,8.1
2023-05-01T04:50:47.446Z,8.1
2023-05-01T05:00:47.416Z,8.1
2023-05-01T05:05:47.462Z,8.1
2023-05-01T05:15:47.448Z,8.1
2023-05-01T05:20:47.470Z,8.2
2023-05-01T05:35:47.498Z,8.1
2023-05-01T05:45:47.469Z,8
2023-05-01T05:50:47.453Z,8.1
2023-05-01T05:55:47.491Z,8.1
2023-05-01T06:05:47.527Z,8.1
2023-05-01T06:15:47.579Z,8.1
2023-05-01T06:20:47.487Z,7.9
2023-05-01T06:25:47.480Z,8.2
2023-05-01T06:30:47.504Z,8.1
2023-05-01T06:35:47.501Z,8.1
2023-05-01T06:45:47.488Z,8.1
2023-05-01T06:55:47.510Z,8.1
2023-05-01T07:00:47.558Z,8.1
2023-05-01T07:10:47.522Z,8.1
2023-05-01T07:20:47.528Z,8.1
2023-05-01T07:25:47.521Z,8.3
2023-05-01T07:35:47.511Z,8.2
2023-05-01T07:45:47.634Z,8.3
2023-05-01T07:50:47.512Z,8.2
2023-05-01T08:00:47.503Z,8.2
2023-05-01T08:05:47.511Z,8.2
2023-05-01T08:10:47.519Z,8.2
2023-05-01T08:20:47.530Z,8.3
2023-05-01T08:30:47.570Z,8.3
2023-05-01T08:40:47.513Z,8.3
2023-05-01T08:45:47.522Z,8.4
2023-05-01T09:05:47.521Z,8.4
2023-05-01T09:15:47.566Z,8.4
2023-05-01T09:25:47.523Z,8.4
2023-05-01T09:30:47.524Z,8.4
2023-05-01T09:40:47.562Z,8.5
2023-05-01T09:50:47.553Z,8.5
2023-05-01T10:00:47.620Z,8.6
2023-05-01T10:10:47.578Z,8.6
2023-05-01T10:20:47.528Z,8.6
2023-05-01T10:25:47.545Z,8.6
2023-05-01T10:35:47.539Z,8.6
2023-05-01T10:40:47.581Z,8.5
2023-05-01T11:00:47.547Z,8.7
2023-05-01T11:05:47.582Z,8.7
2023-05-01T11:15:47.573Z,8.7
2023-05-01T11:25:47.596Z,8.8
2023-05-01T11:35:47.618Z,8.9
2023-05-01T11:45:47.625Z,9
2023-05-01T11:55:47.621Z,8.8
2023-05-01T12:15:47.592Z,8.9
2023-05-01T12:20:47.651Z,9
2023-05-01T12:40:47.599Z,9
2023-05-01T12:50:48.932Z,9.2
2023-05-01T13:00:47.598Z,9.1
2023-05-01T13:10:47.677Z,9.1
2023-05-01T13:15:47.628Z,9.1
2023-05-01T13:20:47.605Z,9.1
2023-05-01T13:40:47.597Z,9
2023-05-01T13:50:47.594Z,9
2023-05-01T14:00:47.605Z,9.1
2023-05-01T14:10:47.614Z,9.1
2023-05-01T14:20:47.597Z,9
2023-05-01T14:30:47.641Z,9
2023-05-01T14:40:47.604Z,8.9
2023-05-01T15:00:47.596Z,9.1
2023-05-01T15:05:47.636Z,9
2023-05-01T15:15:47.643Z,9.1
2023-05-01T15:25:47.669Z,9
2023-05-01T15:35:47.628Z,9.2
2023-05-01T15:40:47.616Z,9.3
2023-05-01T15:50:49.229Z,9.2
2023-05-01T16:00:50.049Z,9.2
2023-05-01T16:20:47.603Z,9.2
2023-05-01T16:25:47.625Z,9.2
2023-05-01T16:30:47.614Z,9.2
2023-05-01T16:35:47.655Z,9.2
2023-05-01T16:45:47.615Z,9.2
2023-05-01T16:55:47.630Z,9.3
2023-05-01T17:05:47.621Z,9.2
2023-05-01T17:10:47.645Z,9.3
2023-05-01T17:20:47.634Z,9.3
2023-05-01T17:35:47.647Z,9.3
2023-05-01T17:45:47.714Z,9.6
2023-05-01T17:50:47.690Z,9.4
2023-05-01T18:00:47.662Z,9.5
2023-05-01T18:10:47.617Z,9.5
2023-05-01T18:15:49.413Z,9.6
2023-05-01T18:25:47.662Z,9.7
2023-05-01T18:35:47.681Z,9.7
2023-05-01T18:55:47.632Z,9.7
2023-05-01T19:05:47.906Z,9.7
2023-05-01T19:15:47.730Z,9.8
2023-05-01T19:25:47.686Z,9.7
2023-05-01T19:35:47.679Z,9.7
2023-05-01T19:45:47.740Z,9.7
2023-05-01T19:55:48.172Z,9.8
2023-05-01T20:15:47.674Z,9.8
2023-05-01T20:20:47.676Z,10
2023-05-01T20:35:47.682Z,9.9
2023-05-01T20:55:47.723Z,9.9
2023-05-01T21:05:47.865Z,10.1
2023-05-01T21:30:47.671Z,10
2023-05-01T21:35:47.655Z,10
2023-05-01T21:40:47.705Z,9.9
2023-05-01T21:45:47.709Z,10
2023-05-01T21:50:47.701Z,10
2023-05-01T22:00:47.808Z,10.2
2023-05-01T22:05:47.682Z,10
2023-05-01T22:15:47.657Z,10
2023-05-01T22:20:47.898Z,10
2023-05-01T22:25:47.684Z,9.8
2023-05-01T22:50:47.804Z,9.9
2023-05-01T23:00:47.782Z,10
2023-05-01T23:10:47.692Z,9.9
2023-05-01T23:20:47.762Z,9.9
2023-05-01T23:25:47.777Z,9.8
2023-05-01T23:30:47.681Z,9.9
2023-05-01T23:35:47.784Z,9.8
2023-05-01T23:45:47.691Z,9.8
